Terminal Aerodrome Forecast
Issued by NWS Pocatello, ID

Home | Current Version | Previous Version | Text Only | Print | Product List | Glossary On
Versions: 1 2 3 4 5 6 7 8 9 10 11 12 13 14 15 16 17 18 19 20 21 22 23 24 25 26
000
FTUS45 KPIH 230900 AAB
TAFPIH
TAF AMD
KPIH 230904Z 2309/2406 22020G30KT P6SM OVC020
     FM231300 25025G35KT P6SM BKN120
     FM240300 22014KT P6SM BKN150=

USA.gov is the U.S. government's official web portal to all federal, state and local government web resources and services.